Главная страница
METAR-TAF:

METAR-TAF

Аэропорты :

Остафьево

Москва, Россия

широта: 55-30-42N, долгота: 037-30-26E, высота над уровнем моря: 173 м

Текущие метеонаблюдения

Эта сводка был подготовлена 17 минут назад, в 21:00 UTC
Штиль
Температура 7°C
Влажность 70%
Давление 1022 hPa
Видимость 10 км и более
Рассеянная облачность на высоте 2600 фута

METAR: UUMO 202100Z 00000MPS 9999 BKN026 07/02 Q1022 R26/090060 NOSIG RMK QFE751/1002

Время: 00:17 (21:17 UTC)

Прогноз

Эта сводка был подготовлена 1 час и 19 минут назад, в 19:58 UTC
Прогноз действительный с 20-го 21 UTC до 21-го 06 UTC
Ветер 2 Узел переменных направлений
Видимость: 4000 м
Отдельные облака на высоте 2000 фута
дымка
временами
С 20-го 21 UTC до 21-го 06 UTC
Видимость: 0300 м
Отдельные облака на высоте 200 фута
туман

TAF: UUMO 201958Z 2021/2106 VRB01MPS 4000 BR SCT020 TEMPO 2021/2106 0300 FG SCT002

Метеонаблюдения и прогнозы для более 4000 аэропортов (сводки METAR и TAF).

Имеющиеся станции представлены на карте желтыми и красными точками.

Чтобы увидеть название станции, наведите на нее мышь.

Затем щелкните, чтобы увидеть метеонаблюдения и метеопрогнозы.

Управление картой: чтобы увеличить масштаб, щелкните зеленые кнопки с черным крестиком; чтобы уменьшить масштаб, щелкните зеленую кнопку с тире; для просмотра соседних карт щелкайте зеленые стрелки.


METAR-TAF: